El Anil, Argentina
Current Conditions -  °F | °C
As of 6:00 AM on Monday 20 Oct 2014 (Local Time) from SANT Reporting Station
Clear Clear  
Wind Chill: 17°   Ceiling: Unl
Heat Index: 17°   Visibility: 4mi
Dew Point: 15°   Wind: 5mph
Humidity: 88%   Direction: 320°NW
Pressure: 30.12"   Gusts: NA
Location:  27.87°S, 64.08°W
Report Text: SANT 200900Z 32004KT 7000 NSC 17/15 Q1020
Loading
Personal Weather Stations






























Interactive Weather Map
Tropical Storm Tracking
New forecast layout! Learn more

10-Day Weather Forecast

Advertisements
Track Severe Weather on mobile